Time;durP1;ratioP1;P1;durP2;ratioP2;P2;SDS_P1;SDS_P2;PMS_P1;PMS_P2;Temp;Humidity;BMP_temperature;BMP_pressure;BME280_temperature;BME280_humidity;BME280_pressure;Samples;Min_cycle;Max_cycle;Signal;HPM_P1;HPM_P2
2022/08/26 07:32:20;;;;;;;14.18;4.40;;;;;;;26.32;31.95;99790.48;1730050;82;21261;-43
2022/08/26 07:34:46;;;;;;;17.02;4.03;;;;;;;26.28;33.56;99793.03;1723625;81;21005;-48
2022/08/26 07:37:13;;;;;;;16.32;4.45;;;;;;;26.15;31.92;99779.19;1721280;81;21055;-48
2022/08/26 07:39:41;;;;;;;25.57;5.65;;;;;;;25.91;32.34;99781.78;1724688;81;21358;-47
2022/08/26 07:42:08;;;;;;;17.40;4.58;;;;;;;25.69;32.96;99782.45;1725753;82;21524;-48
2022/08/26 07:44:36;;;;;;;23.70;5.15;;;;;;;25.54;33.92;99782.17;1692927;83;21017;-48
2022/08/26 07:47:04;;;;;;;22.17;5.58;;;;;;;25.43;34.44;99776.22;1691468;83;21022;-48
2022/08/26 07:49:31;;;;;;;34.25;12.18;;;;;;;25.36;33.95;99774.94;1706449;83;21006;-49
2022/08/26 07:51:58;;;;;;;24.30;8.53;;;;;;;25.36;34.97;99774.09;1764746;80;21125;-43
2022/08/26 07:54:24;;;;;;;16.93;5.37;;;;;;;25.45;34.48;99764.94;1771132;80;20993;-48
2022/08/26 07:56:51;;;;;;;17.35;4.87;;;;;;;25.58;33.93;99756.89;1758336;80;21118;-48
2022/08/26 07:59:17;;;;;;;21.70;4.50;;;;;;;25.74;34.07;99756.67;1761437;80;21583;-48
2022/08/26 08:01:45;;;;;;;16.50;4.37;;;;;;;25.89;33.81;99754.25;1760606;79;20999;-48
2022/08/26 08:04:13;;;;;;;21.00;4.80;;;;;;;26.06;33.99;99750.35;1761110;79;21032;-48
2022/08/26 08:06:40;;;;;;;16.82;4.65;;;;;;;26.14;33.35;99743.94;1751348;80;21539;-48
2022/08/26 08:09:07;;;;;;;21.33;4.35;;;;;;;26.14;33.55;99753.32;1769881;80;21003;-48
2022/08/26 08:11:34;;;;;;;20.37;5.22;;;;;;;26.10;33.15;99748.32;1781089;80;20957;-49
2022/08/26 08:14:01;;;;;;;11.97;3.87;;;;;;;26.05;33.80;99751.81;1763774;80;20999;-49
2022/08/26 08:16:28;;;;;;;19.87;4.60;;;;;;;26.00;34.19;99752.99;1758244;80;21008;-48
2022/08/26 08:18:55;;;;;;;17.45;4.55;;;;;;;25.94;33.55;99752.59;1766104;80;21032;-48
2022/08/26 08:21:25;;;;;;;20.82;4.50;;;;;;;25.88;34.04;99750.35;1760231;80;21010;-49
2022/08/26 08:23:52;;;;;;;19.62;5.33;;;;;;;25.87;34.41;99754.00;1770171;80;21046;-48
2022/08/26 08:26:21;;;;;;;11.22;3.75;;;;;;;25.90;33.87;99751.94;1766935;80;21458;-48
2022/08/26 08:28:48;;;;;;;17.48;4.97;;;;;;;25.91;33.68;99749.63;1782045;80;21677;-42
2022/08/26 08:31:24;;;;;;;12.80;4.15;;;;;;;25.90;33.77;99755.95;1769327;80;21012;-48
2022/08/26 08:33:52;;;;;;;16.07;4.28;;;;;;;25.92;33.52;99751.85;1765896;80;21526;-48
2022/08/26 08:36:19;;;;;;;11.15;3.90;;;;;;;25.91;33.43;99753.65;1759733;80;21504;-48
2022/08/26 08:38:46;;;;;;;11.70;4.15;;;;;;;25.92;33.65;99747.34;1760679;80;21048;-49
2022/08/26 08:41:31;;;;;;;19.60;5.28;;;;;;;25.90;33.20;99748.41;1757437;80;21047;-49
2022/08/26 08:43:59;;;;;;;16.87;4.80;;;;;;;25.87;33.79;99747.30;1683495;83;21116;-47
2022/08/26 08:46:25;;;;;;;15.55;4.75;;;;;;;25.85;34.00;99738.50;1656718;84;21037;-44
2022/08/26 08:48:55;;;;;;;13.85;4.45;;;;;;;25.87;34.00;99732.08;1691665;83;21045;-43
2022/08/26 08:51:55;;;;;;;12.10;4.00;;;;;;;25.91;34.45;99732.21;1678914;83;21037;-49
2022/08/26 08:54:21;;;;;;;12.33;4.00;;;;;;;25.97;35.35;99733.59;1685738;83;21596;-43
2022/08/26 08:56:56;;;;;;;11.25;3.87;;;;;;;26.09;33.62;99731.38;1711575;83;21098;-49
2022/08/26 08:59:27;;;;;;;18.10;4.42;;;;;;;26.32;33.25;99719.42;1693297;83;20987;-49
2022/08/26 09:02:25;;;;;;;17.12;4.58;;;;;;;26.61;33.71;99722.16;1684220;83;21032;-49
2022/08/26 09:05:09;;;;;;;18.25;4.58;;;;;;;26.87;33.41;99716.65;1636564;86;21082;-49
2022/08/26 09:07:46;;;;;;;21.37;5.15;;;;;;;27.18;33.40;99722.72;1617237;87;21141;-49
2022/08/26 09:10:36;;;;;;;12.20;4.03;;;;;;;27.53;32.92;99712.37;1624203;88;21111;-49
2022/08/26 09:13:10;;;;;;;22.42;3.85;;;;;;;27.87;32.66;99711.91;1609691;88;22024;-48
2022/08/26 09:16:20;;;;;;;24.23;3.47;;;;;;;28.21;30.97;99706.46;1621018;88;21320;-48
2022/08/26 09:18:53;;;;;;;15.18;3.83;;;;;;;28.38;29.37;99719.41;1616836;88;21637;-44
2022/08/26 09:21:24;;;;;;;17.70;3.30;;;;;;;28.61;28.58;99714.79;1665392;84;21056;-43
2022/08/26 09:23:54;;;;;;;11.23;3.20;;;;;;;28.80;28.59;99712.23;1692430;84;21062;-45
2022/08/26 09:26:29;;;;;;;16.20;3.08;;;;;;;28.97;28.92;99717.56;1694317;83;20985;-44
2022/08/26 09:29:01;;;;;;;20.70;3.33;;;;;;;29.00;28.30;99724.55;1702879;83;21056;-43
2022/08/26 09:31:31;;;;;;;;;;;;;;;29.01;27.56;99719.02;1662526;84;21036;-44
2022/08/26 09:34:15;;;;;;;13.98;3.50;;;;;;;29.04;28.58;99716.55;1656291;83;20110;-48
2022/08/26 09:36:53;;;;;;;19.10;3.30;;;;;;;29.00;29.33;99715.98;1671223;84;21122;-43
2022/08/26 09:39:35;;;;;;;7.20;3.00;;;;;;;28.86;29.63;99708.17;1655509;84;21873;-43
2022/08/26 09:42:21;;;;;;;26.45;3.52;;;;;;;28.81;27.89;99717.98;1715539;81;21079;-49
2022/08/26 09:45:05;;;;;;;18.75;3.75;;;;;;;28.91;28.44;99718.06;1719336;81;21012;-49
2022/08/26 09:47:48;;;;;;;16.27;3.85;;;;;;;28.94;28.05;99712.95;1725553;81;21030;-49
2022/08/26 09:50:41;;;;;;;13.05;3.95;;;;;;;28.98;27.94;99710.34;1727932;81;21385;-49
2022/08/26 09:53:18;;;;;;;28.15;3.85;;;;;;;29.08;28.59;99716.66;1647815;84;21073;-43
2022/08/26 09:55:46;;;;;;;10.55;3.52;;;;;;;29.15;29.08;99713.28;1661916;84;21516;-49
2022/08/26 09:58:33;;;;;;;19.30;3.90;;;;;;;29.22;29.39;99697.94;1660237;85;21571;-43
2022/08/26 10:01:04;;;;;;;16.00;4.30;;;;;;;29.24;28.53;99699.53;1648459;85;21496;-43
2022/08/26 10:03:35;;;;;;;17.35;4.78;;;;;;;29.26;27.83;99702.94;1645179;85;21578;-43
2022/08/26 10:06:18;;;;;;;17.30;3.85;;;;;;;29.28;27.11;99698.29;1648206;85;21494;-49
2022/08/26 10:08:51;;;;;;;15.63;3.60;;;;;;;29.27;27.32;99705.13;1705093;82;21018;-43
2022/08/26 10:11:38;;;;;;;12.60;3.70;;;;;;;29.31;27.78;99706.58;1694588;83;20998;-49
2022/08/26 10:14:16;;;;;;;11.38;3.40;;;;;;;29.31;26.75;99699.35;1704126;82;21015;-44
2022/08/26 10:17:04;;;;;;;9.95;3.80;;;;;;;29.31;27.42;99703.89;1705779;82;21625;-50
2022/08/26 10:19:44;;;;;;;9.28;4.03;;;;;;;29.39;26.83;99702.71;1708171;82;20999;-49
2022/08/26 10:22:33;;;;;;;13.93;4.50;;;;;;;29.55;26.85;99698.21;1679681;83;21036;-43
2022/08/26 10:25:02;;;;;;;17.12;5.25;;;;;;;29.68;27.05;99696.13;1710584;82;21583;-48
2022/08/26 10:27:52;;;;;;;10.20;4.35;;;;;;;29.92;26.79;99691.77;1700787;83;21067;-49
2022/08/26 10:30:22;;;;;;;18.23;4.92;;;;;;;30.20;26.05;99692.31;1735297;80;21504;-48
2022/08/26 10:32:59;;;;;;;16.75;4.55;;;;;;;30.43;25.54;99686.66;1748498;80;21065;-44
2022/08/26 10:35:26;;;;;;;17.77;5.08;;;;;;;30.61;25.18;99691.70;1761826;80;20942;-43
2022/08/26 10:37:57;;;;;;;11.53;4.30;;;;;;;30.82;25.27;99685.33;1761847;80;21635;-44
2022/08/26 10:40:40;;;;;;;15.80;4.50;;;;;;;31.06;24.78;99684.36;1765737;80;21818;-44
2022/08/26 10:43:20;;;;;;;12.65;4.15;;;;;;;31.26;24.53;99685.20;1763973;80;21586;-43
2022/08/26 10:45:50;;;;;;;17.80;4.28;;;;;;;31.56;24.10;99677.83;1762359;79;21461;-44
2022/08/26 10:48:34;;;;;;;11.10;3.77;;;;;;;31.99;24.43;99677.19;1723518;81;20999;-49
2022/08/26 10:51:02;;;;;;;8.85;3.58;;;;;;;32.30;24.01;99680.41;1725247;82;21578;-44
2022/08/26 10:53:58;;;;;;;14.75;4.75;;;;;;;32.50;24.21;99673.00;1766578;80;21126;-44
2022/08/26 10:56:56;;;;;;;9.85;4.12;;;;;;;32.41;23.62;99684.23;1762030;80;21036;-48
2022/08/26 10:59:43;;;;;;;9.40;4.08;;;;;;;32.12;24.26;99683.07;1765076;80;21049;-48
2022/08/26 11:02:39;;;;;;;10.10;3.72;;;;;;;32.07;24.53;99688.63;1761394;80;21018;-48
2022/08/26 11:05:22;;;;;;;20.12;4.20;;;;;;;32.09;24.64;99682.55;1759809;80;21004;-48
2022/08/26 11:07:55;;;;;;;16.30;3.30;;;;;;;31.76;24.94;99680.27;1756357;80;21021;-49
2022/08/26 11:10:39;;;;;;;8.25;3.47;;;;;;;31.35;25.54;99686.16;1750260;81;21002;-48
2022/08/26 11:13:07;;;;;;;8.15;3.70;;;;;;;31.00;25.38;99682.23;1760955;80;21030;-49
2022/08/26 11:15:43;;;;;;;16.90;3.70;;;;;;;30.71;26.21;99684.48;1761984;80;20978;-44
2022/08/26 11:18:14;;;;;;;9.80;3.52;;;;;;;30.54;25.46;99686.52;1756679;80;21588;-43
2022/08/26 11:20:44;;;;;;;11.08;3.37;;;;;;;30.47;26.36;99690.78;1750397;80;20984;-42
2022/08/26 11:23:26;;;;;;;12.55;3.37;;;;;;;30.35;27.00;99687.38;1756435;80;21059;-42
2022/08/26 11:26:10;;;;;;;19.25;4.50;;;;;;;30.24;25.92;99683.95;1761780;80;21032;-49
2022/08/26 11:28:48;;;;;;;10.70;3.15;;;;;;;30.11;26.21;99686.43;1759758;80;20998;-43
2022/08/26 11:31:29;;;;;;;14.10;3.70;;;;;;;30.02;26.66;99695.30;1761296;80;21046;-43
2022/08/26 11:34:05;;;;;;;12.33;3.30;;;;;;;29.98;26.91;99686.28;1759098;80;21052;-43
2022/08/26 11:36:40;;;;;;;12.37;2.95;;;;;;;30.01;27.21;99684.17;1768853;80;21031;-43
2022/08/26 11:39:35;;;;;;;10.68;2.72;;;;;;;30.07;25.55;99686.31;1766475;80;21513;-43
2022/08/26 11:42:25;;;;;;;16.30;3.10;;;;;;;30.02;26.82;99691.27;1758417;80;21024;-48
2022/08/26 11:44:52;;;;;;;15.13;3.60;;;;;;;29.96;25.32;99687.77;1664692;84;21020;-43
2022/08/26 11:47:30;;;;;;;14.33;2.98;;;;;;;29.99;26.02;99701.00;1630450;86;21245;-50
2022/08/26 11:50:14;;;;;;;14.20;3.20;;;;;;;29.99;26.81;99703.69;1667447;84;21548;-43
2022/08/26 11:52:54;;;;;;;10.25;2.95;;;;;;;29.87;27.21;99698.91;1659713;83;21165;-49
2022/08/26 11:55:21;;;;;;;13.25;3.37;;;;;;;29.64;27.35;99709.05;1674415;84;21817;-43
2022/08/26 11:57:56;;;;;;;14.98;3.12;;;;;;;29.44;28.04;99705.86;1669396;85;21150;-48
2022/08/26 12:00:34;;;;;;;12.68;3.65;;;;;;;29.24;28.00;99708.96;1667160;83;22363;-43
2022/08/26 12:03:05;;;;;;;25.90;3.00;;;;;;;29.05;28.46;99710.17;1683803;83;21093;-43
2022/08/26 12:05:39;;;;;;;22.98;3.05;;;;;;;28.96;27.79;99709.63;1675570;84;21090;-42
2022/08/26 12:08:11;;;;;;;18.57;3.15;;;;;;;28.90;28.63;99705.59;1631118;86;21586;-43
2022/08/26 12:10:38;;;;;;;9.83;2.95;;;;;;;28.78;28.47;99710.19;1604128;88;21529;-43
2022/08/26 12:13:05;;;;;;;7.47;3.20;;;;;;;28.68;29.35;99709.25;1631468;86;22147;-48
2022/08/26 12:15:33;;;;;;;10.32;2.70;;;;;;;28.60;28.54;99712.59;1651144;86;21106;-43
2022/08/26 12:18:18;;;;;;;8.88;2.92;;;;;;;28.55;28.90;99712.62;1663793;85;21158;-43
2022/08/26 12:20:47;;;;;;;22.58;3.70;;;;;;;28.48;28.75;99714.13;1688310;81;22686;-49
